createdAt,value
2022-10-05T00:01:01.169Z,0.20
2022-10-05T00:03:37.095Z,0.40
2022-10-05T00:06:04.994Z,0.10
2022-10-05T00:08:35.449Z,0.20
2022-10-05T00:11:07.333Z,0.20
2022-10-05T00:13:37.355Z,0.10
2022-10-05T00:16:22.256Z,0.10
2022-10-05T00:18:52.284Z,0.10
2022-10-05T00:21:29.425Z,0.10
2022-10-05T00:23:58.595Z,0.03
2022-10-05T00:26:35.469Z,0.35
2022-10-05T00:29:07.856Z,0.10
2022-10-05T00:31:37.231Z,0.20
2022-10-05T00:34:04.753Z,0.10
2022-10-05T00:36:32.463Z,0.10
2022-10-05T00:39:01.756Z,0.20
2022-10-05T00:42:04.722Z,0.13
2022-10-05T00:44:46.437Z,0.17
2022-10-05T00:47:29.162Z,0.10
2022-10-05T00:50:26.572Z,0.10
2022-10-05T00:53:21.648Z,0.10
2022-10-05T00:56:07.361Z,0.10
2022-10-05T00:59:29.983Z,0.00
2022-10-05T01:02:09.390Z,0.00
2022-10-05T01:04:46.589Z,0.28
2022-10-05T01:07:22.380Z,0.22
2022-10-05T01:10:19.157Z,0.73
2022-10-05T01:12:55.902Z,0.10
2022-10-05T01:15:37.417Z,0.10
2022-10-05T01:18:32.878Z,0.10
2022-10-05T01:21:18.525Z,0.00
2022-10-05T01:23:45.965Z,0.10
2022-10-05T01:26:32.269Z,0.10
2022-10-05T01:29:15.633Z,0.10
2022-10-05T01:31:50.493Z,0.10
2022-10-05T01:34:32.799Z,0.25
2022-10-05T01:37:25.040Z,0.20
2022-10-05T01:40:16.030Z,0.20
2022-10-05T01:42:49.458Z,0.10
2022-10-05T01:45:29.148Z,0.10
2022-10-05T01:48:14.994Z,0.10
2022-10-05T01:50:50.202Z,0.15
2022-10-05T01:53:55.342Z,0.10
2022-10-05T01:56:47.830Z,0.17
2022-10-05T01:59:35.199Z,0.10
2022-10-05T02:02:10.636Z,0.10
2022-10-05T02:05:01.418Z,0.10
2022-10-05T02:07:43.686Z,0.10
2022-10-05T02:10:22.117Z,0.10
2022-10-05T02:13:01.858Z,0.10
2022-10-05T02:15:44.204Z,0.13
2022-10-05T02:18:30.892Z,0.20
2022-10-05T02:21:02.966Z,0.00
2022-10-05T02:23:35.242Z,0.13
2022-10-05T02:26:06.031Z,0.08
2022-10-05T02:28:45.299Z,0.10
2022-10-05T02:31:25.979Z,0.10
2022-10-05T02:33:53.508Z,0.08
2022-10-05T02:36:36.263Z,0.10
2022-10-05T02:39:33.981Z,0.10
2022-10-05T02:42:17.283Z,0.20
2022-10-05T02:44:47.446Z,0.10
2022-10-05T02:47:33.469Z,0.10
2022-10-05T02:50:24.388Z,0.20
2022-10-05T02:53:13.045Z,0.30
2022-10-05T02:56:11.743Z,0.10
2022-10-05T02:58:46.942Z,0.10
2022-10-05T03:01:28.868Z,0.10
2022-10-05T03:04:16.639Z,0.10
2022-10-05T03:06:57.719Z,0.10
2022-10-05T03:09:32.846Z,0.10
2022-10-05T03:12:07.397Z,0.20
2022-10-05T03:14:50.892Z,0.20
2022-10-05T03:17:26.629Z,0.40
2022-10-05T03:20:13.932Z,0.10
2022-10-05T03:22:50.221Z,0.20
2022-10-05T03:25:41.923Z,0.20
2022-10-05T03:28:24.203Z,0.35
2022-10-05T03:31:20.509Z,0.30
2022-10-05T03:33:54.263Z,0.62
2022-10-05T03:36:47.332Z,0.10
2022-10-05T03:39:33.866Z,0.17
2022-10-05T03:42:01.331Z,0.20
2022-10-05T03:44:46.775Z,0.10
2022-10-05T03:47:35.828Z,0.20
2022-10-05T03:50:07.670Z,0.75
2022-10-05T03:52:47.345Z,0.20
2022-10-05T03:55:26.685Z,0.10
2022-10-05T03:57:57.567Z,0.10
2022-10-05T04:00:27.876Z,0.10
2022-10-05T04:03:13.314Z,0.17
2022-10-05T04:05:49.675Z,0.20
2022-10-05T04:08:58.541Z,0.20
2022-10-05T04:11:34.529Z,0.10
2022-10-05T04:14:12.197Z,0.10
2022-10-05T04:16:48.503Z,0.30
2022-10-05T04:19:54.601Z,0.15
2022-10-05T04:22:26.494Z,0.10
2022-10-05T04:24:59.556Z,0.20
2022-10-05T04:27:44.991Z,0.62
2022-10-05T04:30:17.361Z,0.30
2022-10-05T04:32:57.226Z,0.50
2022-10-05T04:35:24.697Z,0.13
2022-10-05T04:38:18.998Z,0.13
2022-10-05T04:41:21.846Z,0.10
2022-10-05T04:44:10.469Z,0.10
2022-10-05T04:47:11.931Z,0.20
2022-10-05T04:50:18.813Z,0.20
2022-10-05T04:52:49.408Z,0.17
2022-10-05T04:55:23.390Z,0.35
2022-10-05T04:57:56.510Z,0.20
2022-10-05T05:00:39.061Z,0.10
2022-10-05T05:03:12.660Z,0.10
2022-10-05T05:06:15.478Z,0.00
2022-10-05T05:08:58.215Z,0.43
2022-10-05T05:11:54.073Z,0.22
2022-10-05T05:14:24.353Z,0.55
2022-10-05T05:17:12.208Z,0.10
2022-10-05T05:20:17.220Z,0.00
2022-10-05T05:22:56.779Z,0.10
2022-10-05T05:25:44.650Z,0.10
2022-10-05T05:28:18.321Z,0.10
2022-10-05T05:31:08.923Z,0.10
2022-10-05T05:33:53.664Z,0.40
2022-10-05T05:36:39.485Z,0.30
2022-10-05T05:39:27.138Z,0.20
2022-10-05T05:42:06.326Z,0.20
2022-10-05T05:44:56.681Z,0.55
2022-10-05T05:47:37.681Z,0.30
2022-10-05T05:50:43.216Z,0.20
2022-10-05T05:53:18.139Z,0.22
2022-10-05T05:56:11.003Z,0.25
2022-10-05T05:58:51.797Z,0.10
2022-10-05T06:01:44.475Z,0.10
2022-10-05T06:04:18.993Z,0.10
2022-10-05T06:06:53.083Z,0.28
2022-10-05T06:09:46.399Z,0.20
2022-10-05T06:12:32.882Z,0.20
2022-10-05T06:15:04.733Z,0.40
2022-10-05T06:17:41.558Z,0.20
2022-10-05T06:20:29.586Z,0.60
2022-10-05T06:23:03.319Z,0.20
2022-10-05T06:25:45.741Z,0.30
2022-10-05T06:28:16.106Z,0.20
2022-10-05T06:31:04.949Z,1.80
2022-10-05T06:33:52.672Z,0.50
2022-10-05T06:36:27.179Z,0.13
2022-10-05T06:39:13.770Z,0.20
2022-10-05T06:42:10.446Z,0.57
2022-10-05T06:45:20.369Z,0.57
2022-10-05T06:48:12.429Z,0.32
2022-10-05T06:50:45.671Z,0.37
2022-10-05T06:53:52.673Z,0.62
2022-10-05T06:56:35.379Z,0.70
2022-10-05T06:59:41.903Z,0.50
2022-10-05T07:02:30.845Z,0.45
2022-10-05T07:05:22.530Z,1.58
2022-10-05T07:07:59.168Z,0.60
2022-10-05T07:10:32.858Z,0.20
2022-10-05T07:13:23.839Z,1.42
2022-10-05T07:16:07.050Z,0.55
2022-10-05T07:18:37.403Z,1.25
2022-10-05T07:21:48.269Z,0.98
2022-10-05T07:24:48.324Z,0.60
2022-10-05T07:27:30.420Z,0.77
2022-10-05T07:30:12.392Z,0.62
2022-10-05T07:33:27.548Z,0.62
2022-10-05T07:36:35.447Z,0.62
2022-10-05T07:39:23.513Z,1.00
2022-10-05T07:42:04.487Z,0.73
2022-10-05T07:44:40.547Z,1.15
2022-10-05T07:47:35.725Z,0.95
2022-10-05T07:50:25.732Z,1.15
2022-10-05T07:53:06.335Z,1.40
2022-10-05T07:55:40.207Z,1.23
2022-10-05T07:58:27.586Z,0.68
2022-10-05T08:01:01.180Z,1.65
2022-10-05T08:03:44.071Z,1.58
2022-10-05T08:06:31.926Z,1.07
2022-10-05T08:09:30.314Z,1.12
2022-10-05T08:12:34.205Z,1.37
2022-10-05T08:15:15.075Z,0.95
2022-10-05T08:17:49.941Z,1.15
2022-10-05T08:20:33.341Z,1.27
2022-10-05T08:23:16.845Z,1.42
2022-10-05T08:25:58.028Z,1.08
2022-10-05T08:28:29.748Z,1.48
2022-10-05T08:31:02.967Z,1.23
2022-10-05T08:33:41.257Z,0.77
2022-10-05T08:36:18.776Z,1.20
2022-10-05T08:38:46.700Z,1.85
2022-10-05T08:41:52.821Z,1.90
2022-10-05T08:44:55.077Z,1.65
2022-10-05T08:47:28.042Z,0.87
2022-10-05T08:50:17.268Z,1.65
2022-10-05T08:53:03.038Z,1.42
2022-10-05T08:55:39.377Z,1.40
2022-10-05T08:58:26.327Z,1.58
2022-10-05T09:01:08.521Z,1.60
2022-10-05T09:04:00.969Z,1.40
2022-10-05T09:07:09.171Z,0.90
2022-10-05T09:10:01.915Z,0.93
2022-10-05T09:12:48.216Z,1.23
2022-10-05T09:16:03.914Z,0.93
2022-10-05T09:18:55.834Z,0.47
2022-10-05T09:21:46.708Z,0.73
2022-10-05T09:24:14.381Z,1.15
2022-10-05T09:26:41.860Z,0.52
2022-10-05T09:29:34.374Z,0.63
2022-10-05T09:32:21.809Z,0.75
2022-10-05T09:34:58.412Z,0.88
2022-10-05T09:37:41.617Z,0.73
2022-10-05T09:40:41.754Z,0.70
2022-10-05T09:43:24.140Z,0.90
2022-10-05T09:46:09.413Z,0.70
2022-10-05T09:49:01.314Z,0.98
2022-10-05T09:52:06.183Z,0.82
2022-10-05T09:55:11.266Z,0.73
2022-10-05T09:58:03.859Z,0.77
2022-10-05T10:00:55.643Z,0.55
2022-10-05T10:04:07.101Z,0.43
2022-10-05T10:07:17.560Z,0.40
2022-10-05T10:10:29.277Z,1.08
2022-10-05T10:13:14.864Z,0.33
2022-10-05T10:16:05.511Z,0.90
2022-10-05T10:19:04.033Z,0.60
2022-10-05T10:21:42.188Z,0.70
2022-10-05T10:24:38.416Z,0.88
2022-10-05T10:27:12.088Z,0.40
2022-10-05T10:29:58.774Z,0.70
2022-10-05T10:32:44.910Z,0.80
2022-10-05T10:35:37.826Z,1.23
2022-10-05T10:38:41.262Z,0.77
2022-10-05T10:41:30.727Z,1.00
2022-10-05T10:44:38.926Z,0.65
2022-10-05T10:47:32.381Z,0.30
2022-10-05T10:50:17.986Z,0.37
2022-10-05T10:53:17.989Z,1.15
2022-10-05T10:55:51.429Z,0.60
2022-10-05T10:58:21.646Z,0.65
2022-10-05T11:01:32.325Z,0.47
2022-10-05T11:04:22.877Z,1.00
2022-10-05T11:07:19.748Z,0.80
2022-10-05T11:10:02.330Z,0.80
2022-10-05T11:13:08.913Z,0.90
2022-10-05T11:16:01.647Z,0.35
2022-10-05T11:18:41.249Z,1.20
2022-10-05T11:21:30.363Z,0.80
2022-10-05T11:24:16.828Z,0.70
2022-10-05T11:27:07.496Z,0.80
2022-10-05T11:30:13.981Z,0.98
2022-10-05T11:32:44.384Z,0.70
2022-10-05T11:35:36.502Z,1.10
2022-10-05T11:38:25.387Z,0.77
2022-10-05T11:41:08.507Z,0.80
2022-10-05T11:43:47.974Z,0.75
2022-10-05T11:46:23.848Z,1.00
2022-10-05T11:49:34.610Z,0.80
2022-10-05T11:52:05.157Z,0.80
2022-10-05T11:57:47.431Z,0.90
2022-10-05T12:00:20.874Z,1.05
2022-10-05T12:03:16.043Z,1.05
2022-10-05T12:06:07.186Z,0.50
2022-10-05T12:08:51.600Z,0.60
2022-10-05T12:11:25.200Z,0.60
2022-10-05T12:14:02.922Z,0.52
2022-10-05T12:16:45.350Z,0.57
2022-10-05T12:19:57.687Z,0.60
2022-10-05T12:22:43.835Z,0.73
2022-10-05T12:25:21.598Z,1.12
2022-10-05T12:27:53.556Z,0.35
2022-10-05T12:30:27.424Z,0.65
2022-10-05T12:33:19.934Z,0.77
2022-10-05T12:36:22.375Z,1.25
2022-10-05T12:39:21.061Z,0.45
2022-10-05T12:41:57.693Z,0.45
2022-10-05T12:44:37.561Z,0.45
2022-10-05T12:47:26.675Z,0.27
2022-10-05T12:49:58.689Z,0.20
2022-10-05T12:52:38.170Z,0.20
2022-10-05T12:55:26.159Z,0.45
2022-10-05T12:58:12.217Z,0.35
2022-10-05T13:00:51.714Z,0.40
2022-10-05T13:03:25.273Z,0.20
2022-10-05T13:06:10.933Z,0.35
2022-10-05T13:08:54.757Z,0.50
2022-10-05T13:11:28.751Z,0.35
2022-10-05T13:14:07.382Z,0.30
2022-10-05T13:16:56.271Z,0.20
2022-10-05T13:19:36.514Z,0.32
2022-10-05T13:22:35.366Z,0.28
2022-10-05T13:25:09.131Z,0.43
2022-10-05T13:27:42.016Z,0.20
2022-10-05T13:30:18.149Z,0.60
2022-10-05T13:32:53.009Z,0.40
2022-10-05T13:35:52.309Z,0.32
2022-10-05T13:38:45.821Z,0.40
2022-10-05T13:41:25.841Z,0.60
2022-10-05T13:44:22.132Z,0.20
2022-10-05T13:46:57.263Z,0.60
2022-10-05T13:49:58.979Z,0.30
2022-10-05T13:52:42.233Z,0.40
2022-10-05T13:55:21.993Z,0.30
2022-10-05T13:58:05.879Z,0.20
2022-10-05T14:00:37.977Z,0.73
2022-10-05T14:03:34.999Z,0.20
2022-10-05T14:06:07.034Z,0.30
2022-10-05T14:08:37.083Z,0.60
2022-10-05T14:11:23.265Z,0.13
2022-10-05T14:13:50.931Z,0.70
2022-10-05T14:16:21.485Z,0.35
2022-10-05T14:18:54.104Z,0.50
2022-10-05T14:21:25.001Z,0.20
2022-10-05T14:23:54.277Z,0.30
2022-10-05T14:26:24.852Z,0.30
2022-10-05T14:28:59.932Z,0.35
2022-10-05T14:31:34.815Z,0.55
2022-10-05T14:34:29.273Z,0.87
2022-10-05T14:37:00.324Z,0.30
2022-10-05T14:39:29.824Z,0.20
2022-10-05T14:41:57.374Z,0.70
2022-10-05T14:47:18.293Z,0.50
2022-10-05T14:50:17.665Z,0.40
2022-10-05T14:52:51.818Z,0.40
2022-10-05T14:55:20.110Z,0.55
2022-10-05T14:58:17.099Z,0.50
2022-10-05T15:00:57.346Z,0.27
2022-10-05T15:03:49.294Z,0.30
2022-10-05T15:06:38.198Z,1.00
2022-10-05T15:09:17.577Z,0.50
2022-10-05T15:11:56.772Z,0.68
2022-10-05T15:14:40.089Z,0.30
2022-10-05T15:17:35.123Z,0.73
2022-10-05T15:20:24.902Z,0.77
2022-10-05T15:22:52.368Z,0.20
2022-10-05T15:25:27.867Z,0.20
2022-10-05T15:28:21.461Z,0.40
2022-10-05T15:31:00.165Z,0.43
2022-10-05T15:33:28.760Z,0.40
2022-10-05T15:36:02.180Z,1.25
2022-10-05T15:38:38.347Z,0.22
2022-10-05T15:41:24.827Z,0.23
2022-10-05T15:44:15.677Z,0.40
2022-10-05T15:46:56.518Z,0.30
2022-10-05T15:49:36.921Z,0.25
2022-10-05T15:52:17.701Z,0.40
2022-10-05T15:55:35.223Z,0.50
2022-10-05T15:58:25.772Z,0.57
2022-10-05T16:01:04.950Z,0.50
2022-10-05T16:03:47.312Z,0.50
2022-10-05T16:06:51.125Z,0.20
2022-10-05T16:09:36.832Z,0.23
2022-10-05T16:12:10.438Z,0.52
2022-10-05T16:15:09.626Z,0.32
2022-10-05T16:17:55.497Z,0.52
2022-10-05T16:20:38.462Z,0.20
2022-10-05T16:23:29.803Z,0.30
2022-10-05T16:26:09.048Z,0.30
2022-10-05T16:29:00.991Z,0.40
2022-10-05T16:32:05.985Z,0.35
2022-10-05T16:34:33.488Z,0.35
2022-10-05T16:37:38.322Z,0.40
2022-10-05T16:40:22.235Z,0.47
2022-10-05T16:43:49.274Z,0.20
2022-10-05T16:46:36.666Z,0.30
2022-10-05T16:49:18.203Z,0.30
2022-10-05T16:52:01.940Z,0.20
2022-10-05T16:54:43.172Z,0.30
2022-10-05T16:57:23.603Z,0.30
2022-10-05T17:00:15.050Z,0.20
2022-10-05T17:03:02.194Z,0.30
2022-10-05T17:05:45.881Z,0.33
2022-10-05T17:08:44.565Z,0.40
2022-10-05T17:11:36.978Z,0.50
2022-10-05T17:14:22.878Z,0.28
2022-10-05T17:16:59.394Z,0.35
2022-10-05T17:19:54.044Z,0.43
2022-10-05T17:22:50.742Z,0.20
2022-10-05T17:25:47.426Z,0.40
2022-10-05T17:28:42.236Z,0.68
2022-10-05T17:31:09.923Z,0.30
2022-10-05T17:34:00.243Z,0.37
2022-10-05T17:36:49.581Z,0.93
2022-10-05T17:39:25.772Z,0.90
2022-10-05T17:41:54.041Z,0.82
2022-10-05T17:44:26.216Z,1.55
2022-10-05T17:47:04.877Z,1.70
2022-10-05T17:50:08.164Z,0.88
2022-10-05T17:52:53.878Z,0.70
2022-10-05T17:55:44.740Z,0.40
2022-10-05T17:58:24.570Z,0.55
2022-10-05T18:01:07.095Z,0.60
2022-10-05T18:03:43.997Z,0.30
2022-10-05T18:06:26.496Z,0.50
2022-10-05T18:09:17.483Z,0.47
2022-10-05T18:12:17.936Z,0.47
2022-10-05T18:14:57.518Z,0.83
2022-10-05T18:17:59.623Z,0.52
2022-10-05T18:20:27.295Z,0.50
2022-10-05T18:23:23.872Z,0.40
2022-10-05T18:26:05.708Z,0.52
2022-10-05T18:28:52.714Z,1.10
2022-10-05T18:32:02.897Z,0.30
2022-10-05T18:35:02.290Z,0.50
2022-10-05T18:38:12.061Z,0.77
2022-10-05T18:40:53.373Z,0.60
2022-10-05T18:43:30.033Z,0.97
2022-10-05T18:46:28.423Z,0.55
2022-10-05T18:49:06.181Z,0.10
2022-10-05T18:52:04.880Z,0.20
2022-10-05T18:54:57.727Z,0.30
2022-10-05T18:58:04.459Z,0.60
2022-10-05T19:00:51.375Z,1.15
2022-10-05T19:03:49.552Z,0.52
2022-10-05T19:06:37.334Z,0.28
2022-10-05T19:09:20.149Z,1.05
2022-10-05T19:12:05.702Z,0.33
2022-10-05T19:14:54.469Z,0.62
2022-10-05T19:17:54.415Z,0.52
2022-10-05T19:20:24.933Z,0.50
2022-10-05T19:23:02.153Z,0.30
2022-10-05T19:25:41.171Z,0.63
2022-10-05T19:28:17.161Z,0.68
2022-10-05T19:30:50.965Z,0.22
2022-10-05T19:33:33.530Z,0.57
2022-10-05T19:36:19.542Z,0.30
2022-10-05T19:39:05.719Z,0.37
2022-10-05T19:41:43.199Z,0.30
2022-10-05T19:44:35.319Z,0.88
2022-10-05T19:47:17.476Z,0.30
2022-10-05T19:49:55.288Z,0.77
2022-10-05T19:52:43.407Z,0.50
2022-10-05T19:55:23.204Z,0.50
2022-10-05T19:57:52.106Z,0.68
2022-10-05T20:00:37.725Z,0.40
2022-10-05T20:03:29.731Z,0.40
2022-10-05T20:06:02.406Z,0.60
2022-10-05T20:08:44.289Z,0.30
2022-10-05T20:11:14.641Z,0.30
2022-10-05T20:13:45.377Z,0.37
2022-10-05T20:16:46.142Z,0.70
2022-10-05T20:19:49.779Z,0.33
2022-10-05T20:22:26.236Z,0.45
2022-10-05T20:24:56.595Z,0.32
2022-10-05T20:27:53.173Z,0.65
2022-10-05T20:30:25.387Z,0.22
2022-10-05T20:32:57.556Z,0.30
2022-10-05T20:35:27.810Z,0.40
2022-10-05T20:37:59.074Z,0.47
2022-10-05T20:40:31.035Z,0.10
2022-10-05T20:42:59.271Z,0.22
2022-10-05T20:45:26.777Z,0.37
2022-10-05T20:47:55.010Z,0.60
2022-10-05T20:50:24.612Z,0.43
2022-10-05T20:52:52.878Z,0.50
2022-10-05T20:55:20.899Z,0.57
2022-10-05T20:57:51.299Z,0.27
2022-10-05T21:00:20.902Z,0.40
2022-10-05T21:02:48.385Z,1.02
2022-10-05T21:05:18.060Z,0.20
2022-10-05T21:07:45.964Z,0.88
2022-10-05T21:10:14.257Z,0.30
2022-10-05T21:12:42.129Z,0.22
2022-10-05T21:15:10.443Z,0.40
2022-10-05T21:17:38.024Z,0.98
2022-10-05T21:20:05.897Z,0.30
2022-10-05T21:22:35.469Z,0.57
2022-10-05T21:25:02.957Z,0.25
2022-10-05T21:27:31.076Z,0.40
2022-10-05T21:29:58.564Z,0.17
2022-10-05T21:32:26.079Z,0.20
2022-10-05T21:34:57.210Z,0.50
2022-10-05T21:37:26.834Z,0.20
2022-10-05T21:39:54.326Z,0.25
2022-10-05T21:42:23.515Z,0.20
2022-10-05T21:44:53.550Z,0.93
2022-10-05T21:47:21.064Z,0.33
2022-10-05T21:49:48.609Z,0.52
2022-10-05T21:52:16.193Z,0.28
2022-10-05T21:54:43.718Z,0.20
2022-10-05T21:57:12.999Z,0.20
2022-10-05T21:59:43.597Z,0.20
2022-10-05T22:02:11.073Z,0.40
2022-10-05T22:04:38.608Z,0.50
2022-10-05T22:07:20.473Z,0.57
2022-10-05T22:09:49.474Z,0.20
2022-10-05T22:12:20.791Z,0.10
2022-10-05T22:14:49.677Z,0.30
2022-10-05T22:17:27.327Z,0.80
2022-10-05T22:19:58.017Z,0.20
2022-10-05T22:22:26.932Z,0.57
2022-10-05T22:24:55.260Z,0.50
2022-10-05T22:27:28.526Z,0.40
2022-10-05T22:29:57.145Z,0.20
2022-10-05T22:32:25.289Z,0.45
2022-10-05T22:34:55.514Z,0.47
2022-10-05T22:37:23.018Z,0.40
2022-10-05T22:39:50.806Z,0.30
2022-10-05T22:42:18.256Z,0.25
2022-10-05T22:44:48.121Z,0.32
2022-10-05T22:47:15.625Z,0.82
2022-10-05T22:49:45.241Z,0.20
2022-10-05T22:52:12.752Z,0.10
2022-10-05T22:54:40.277Z,0.25
2022-10-05T22:57:08.233Z,0.08
2022-10-05T22:59:35.734Z,0.62
2022-10-05T23:02:04.488Z,0.40
2022-10-05T23:04:32.117Z,0.20
2022-10-05T23:06:59.640Z,0.20
2022-10-05T23:09:27.203Z,0.20
2022-10-05T23:11:54.674Z,0.30
2022-10-05T23:14:24.879Z,0.40
2022-10-05T23:16:52.464Z,0.10
2022-10-05T23:19:19.999Z,0.43
2022-10-05T23:21:47.453Z,0.40
2022-10-05T23:24:14.930Z,0.73
2022-10-05T23:26:42.403Z,0.30
2022-10-05T23:29:10.005Z,0.47
2022-10-05T23:31:37.497Z,0.50
2022-10-05T23:34:04.990Z,0.65
2022-10-05T23:36:35.894Z,0.25
2022-10-05T23:39:08.363Z,0.60
2022-10-05T23:41:35.822Z,0.15
2022-10-05T23:44:03.348Z,0.20
2022-10-05T23:46:30.826Z,0.20
2022-10-05T23:48:58.365Z,0.10
2022-10-05T23:51:27.978Z,0.17
2022-10-05T23:53:55.490Z,0.52
2022-10-05T23:56:23.222Z,0.30
2022-10-05T23:58:50.722Z,0.37
